Pagrindinis puslapis
METAR-TAF:

METAR-TAF

Oro uostai :

Nakhon Ratchasima, Tailandas

platuma: 14-56-58N, ilguma: 102-18-45E, Aukštis: 233 m

Dabartinis oras

Ataskaita buvo paskelbta 29 minutes, ne 04:00 UTC
Vėjas 4 kt nuo kintamojo kryptimis
Temperatūra 31°C
Drėgmė 71%
Slėgis 1014 hPa
Matomumas 10 km arba daugiau
Išsisklaidę debesys ne aukštis 2500 ft

METAR: VTUQ 310400Z VRB04KT 9999 SCT025 31/25 Q1014 NOSIG

Laikas: 11:29 (04:29 UTC)

Prognozė

Ataskaita buvo paskelbta 5 valandos ir 29 minutes, ne 23:00 UTC
Prognozė galioja nuo 31 metu 00 UTC su 31 metu 24 UTC
Vėjas 5 kt iš Pietvakarių
Matomumas 10 km arba daugiau
Mažai debesys ne aukštis 3000 ft
Laikinai
nuo 31 metu 08 UTC su 31 metu 11 UTC
Vėjas 15 kt nuo kintamojo kryptimis
Matomumas: 4500 m
Mažai debesys ne aukštis 1800 ft, Liūtiniai kamuoliniai debesys.
Su prošvaistėmis ne aukštis 2500 ft
perkūnija, lietus

TAF: VTUQ 302300Z 3100/3124 22005KT 9999 FEW030 TEMPO 3108/3111 VRB15KT 4500 TSRA FEW018CB BKN025

Orai ataskaitas ir orų prognozės (METAR, TAF).

turimą stotys yra geltonos ir raudonos taškus žemėlapyje.

Perkelti pele per norėdami pamatyti stoties vardą.

Tada spustelėkite, norėdami matyti oro stebėjimo ir prognozės.

Norėdami pakeisti žemėlapį: spustelėkite ant žalios mygtukų su juodo kryžiaus žemyn,; žalią mygtuką su brūkšneliu, jei norite nutolinti; arba žalių rodyklių gretimoms žemėlapius.


METAR-TAF: